sensor_id;sensor_type;location;lat;lon;timestamp;P1;durP1;ratioP1;P2;durP2;ratioP2
67640;SDS011;54434;50.096;20.082;2024-03-08T00:00:36;24.10;;;12.20;;
67640;SDS011;54434;50.096;20.082;2024-03-08T00:03:47;27.90;;;13.80;;
67640;SDS011;54434;50.096;20.082;2024-03-08T00:06:43;24.10;;;12.60;;
67640;SDS011;54434;50.096;20.082;2024-03-08T00:09:37;23.60;;;12.80;;
67640;SDS011;54434;50.096;20.082;2024-03-08T00:12:31;20.30;;;11.20;;
67640;SDS011;54434;50.096;20.082;2024-03-08T00:15:25;26.10;;;12.90;;
67640;SDS011;54434;50.096;20.082;2024-03-08T00:18:20;24.20;;;13.80;;
67640;SDS011;54434;50.096;20.082;2024-03-08T00:21:14;22.90;;;12.50;;
67640;SDS011;54434;50.096;20.082;2024-03-08T00:24:08;24.80;;;12.70;;
67640;SDS011;54434;50.096;20.082;2024-03-08T00:27:03;24.80;;;13.70;;
67640;SDS011;54434;50.096;20.082;2024-03-08T00:29:57;24.50;;;13.50;;
67640;SDS011;54434;50.096;20.082;2024-03-08T00:32:52;22.70;;;12.30;;
67640;SDS011;54434;50.096;20.082;2024-03-08T00:35:46;29.00;;;13.20;;
67640;SDS011;54434;50.096;20.082;2024-03-08T00:38:40;24.00;;;13.40;;
67640;SDS011;54434;50.096;20.082;2024-03-08T00:41:34;25.00;;;13.00;;
67640;SDS011;54434;50.096;20.082;2024-03-08T00:44:28;26.80;;;13.20;;
67640;SDS011;54434;50.096;20.082;2024-03-08T00:47:23;25.80;;;13.80;;
67640;SDS011;54434;50.096;20.082;2024-03-08T00:50:17;26.30;;;13.70;;
67640;SDS011;54434;50.096;20.082;2024-03-08T00:53:11;22.00;;;11.90;;
67640;SDS011;54434;50.096;20.082;2024-03-08T00:56:05;25.90;;;14.00;;
67640;SDS011;54434;50.096;20.082;2024-03-08T00:59:00;23.10;;;13.30;;
67640;SDS011;54434;50.096;20.082;2024-03-08T01:01:54;28.50;;;14.20;;
67640;SDS011;54434;50.096;20.082;2024-03-08T01:04:48;24.90;;;14.20;;
67640;SDS011;54434;50.096;20.082;2024-03-08T01:07:42;28.20;;;14.50;;
67640;SDS011;54434;50.096;20.082;2024-03-08T01:10:38;26.80;;;14.10;;
67640;SDS011;54434;50.096;20.082;2024-03-08T01:13:32;31.40;;;14.50;;
67640;SDS011;54434;50.096;20.082;2024-03-08T01:16:26;29.90;;;14.60;;
67640;SDS011;54434;50.096;20.082;2024-03-08T01:19:19;24.70;;;13.60;;
67640;SDS011;54434;50.096;20.082;2024-03-08T01:22:14;25.80;;;14.10;;
67640;SDS011;54434;50.096;20.082;2024-03-08T01:25:09;26.10;;;14.10;;
67640;SDS011;54434;50.096;20.082;2024-03-08T01:28:04;27.50;;;14.30;;
67640;SDS011;54434;50.096;20.082;2024-03-08T01:31:00;23.10;;;12.80;;
67640;SDS011;54434;50.096;20.082;2024-03-08T01:33:54;21.70;;;13.00;;
67640;SDS011;54434;50.096;20.082;2024-03-08T01:36:48;26.00;;;13.30;;
67640;SDS011;54434;50.096;20.082;2024-03-08T01:39:42;22.30;;;12.40;;
67640;SDS011;54434;50.096;20.082;2024-03-08T01:42:36;22.60;;;12.50;;
67640;SDS011;54434;50.096;20.082;2024-03-08T01:45:31;28.90;;;14.80;;
67640;SDS011;54434;50.096;20.082;2024-03-08T01:48:25;22.30;;;12.00;;
67640;SDS011;54434;50.096;20.082;2024-03-08T01:51:20;24.00;;;12.90;;
67640;SDS011;54434;50.096;20.082;2024-03-08T01:54:15;22.40;;;11.90;;
67640;SDS011;54434;50.096;20.082;2024-03-08T01:57:11;25.20;;;13.60;;
67640;SDS011;54434;50.096;20.082;2024-03-08T02:00:08;22.90;;;12.80;;
67640;SDS011;54434;50.096;20.082;2024-03-08T02:03:04;22.70;;;11.90;;
67640;SDS011;54434;50.096;20.082;2024-03-08T02:05:59;25.70;;;12.80;;
67640;SDS011;54434;50.096;20.082;2024-03-08T02:08:53;25.00;;;13.60;;
67640;SDS011;54434;50.096;20.082;2024-03-08T02:11:47;23.00;;;12.80;;
67640;SDS011;54434;50.096;20.082;2024-03-08T02:14:42;30.30;;;14.30;;
67640;SDS011;54434;50.096;20.082;2024-03-08T02:17:35;27.40;;;14.10;;
67640;SDS011;54434;50.096;20.082;2024-03-08T02:20:31;24.20;;;13.30;;
67640;SDS011;54434;50.096;20.082;2024-03-08T02:23:26;26.40;;;13.60;;
67640;SDS011;54434;50.096;20.082;2024-03-08T02:26:20;28.10;;;14.90;;
67640;SDS011;54434;50.096;20.082;2024-03-08T02:29:14;29.10;;;14.40;;
67640;SDS011;54434;50.096;20.082;2024-03-08T02:32:09;26.50;;;13.50;;
67640;SDS011;54434;50.096;20.082;2024-03-08T02:35:04;26.70;;;14.30;;
67640;SDS011;54434;50.096;20.082;2024-03-08T02:37:58;27.40;;;14.80;;
67640;SDS011;54434;50.096;20.082;2024-03-08T02:40:53;28.60;;;14.70;;
67640;SDS011;54434;50.096;20.082;2024-03-08T02:43:47;31.70;;;14.60;;
67640;SDS011;54434;50.096;20.082;2024-03-08T02:46:41;26.50;;;14.10;;
67640;SDS011;54434;50.096;20.082;2024-03-08T02:49:35;23.10;;;12.90;;
67640;SDS011;54434;50.096;20.082;2024-03-08T02:52:29;32.10;;;15.50;;
67640;SDS011;54434;50.096;20.082;2024-03-08T02:55:24;29.40;;;14.10;;
67640;SDS011;54434;50.096;20.082;2024-03-08T02:58:18;26.80;;;13.40;;
67640;SDS011;54434;50.096;20.082;2024-03-08T03:01:12;24.10;;;11.90;;
67640;SDS011;54434;50.096;20.082;2024-03-08T03:04:06;24.70;;;12.70;;
67640;SDS011;54434;50.096;20.082;2024-03-08T03:07:00;31.40;;;13.70;;
67640;SDS011;54434;50.096;20.082;2024-03-08T03:09:55;22.50;;;12.70;;
67640;SDS011;54434;50.096;20.082;2024-03-08T03:12:49;23.30;;;13.40;;
67640;SDS011;54434;50.096;20.082;2024-03-08T03:15:43;24.40;;;12.90;;
67640;SDS011;54434;50.096;20.082;2024-03-08T03:18:38;23.40;;;13.00;;
67640;SDS011;54434;50.096;20.082;2024-03-08T03:21:32;28.80;;;15.00;;
67640;SDS011;54434;50.096;20.082;2024-03-08T03:24:26;29.80;;;14.40;;
67640;SDS011;54434;50.096;20.082;2024-03-08T03:27:21;28.30;;;14.30;;
67640;SDS011;54434;50.096;20.082;2024-03-08T03:30:16;29.50;;;14.90;;
67640;SDS011;54434;50.096;20.082;2024-03-08T03:33:13;25.60;;;12.30;;
67640;SDS011;54434;50.096;20.082;2024-03-08T03:36:08;27.70;;;14.50;;
67640;SDS011;54434;50.096;20.082;2024-03-08T03:39:03;28.30;;;15.00;;
67640;SDS011;54434;50.096;20.082;2024-03-08T03:42:01;26.70;;;15.00;;
67640;SDS011;54434;50.096;20.082;2024-03-08T03:44:56;26.30;;;13.30;;
67640;SDS011;54434;50.096;20.082;2024-03-08T03:47:50;23.10;;;12.40;;
67640;SDS011;54434;50.096;20.082;2024-03-08T03:50:44;27.60;;;13.90;;
67640;SDS011;54434;50.096;20.082;2024-03-08T03:53:38;26.30;;;14.70;;
67640;SDS011;54434;50.096;20.082;2024-03-08T03:56:32;26.60;;;13.60;;
67640;SDS011;54434;50.096;20.082;2024-03-08T03:59:26;24.30;;;14.00;;
67640;SDS011;54434;50.096;20.082;2024-03-08T04:02:20;24.60;;;12.60;;
67640;SDS011;54434;50.096;20.082;2024-03-08T04:05:14;24.80;;;13.20;;
67640;SDS011;54434;50.096;20.082;2024-03-08T04:08:10;30.00;;;14.50;;
67640;SDS011;54434;50.096;20.082;2024-03-08T04:11:03;26.00;;;14.40;;
67640;SDS011;54434;50.096;20.082;2024-03-08T04:13:59;28.20;;;12.40;;
67640;SDS011;54434;50.096;20.082;2024-03-08T04:16:54;26.70;;;13.80;;
67640;SDS011;54434;50.096;20.082;2024-03-08T04:19:48;20.80;;;11.50;;
67640;SDS011;54434;50.096;20.082;2024-03-08T04:22:42;26.40;;;14.30;;
67640;SDS011;54434;50.096;20.082;2024-03-08T04:25:37;28.50;;;14.30;;
67640;SDS011;54434;50.096;20.082;2024-03-08T04:28:33;22.40;;;12.40;;
67640;SDS011;54434;50.096;20.082;2024-03-08T04:31:27;23.90;;;12.90;;
67640;SDS011;54434;50.096;20.082;2024-03-08T04:34:22;29.00;;;13.90;;
67640;SDS011;54434;50.096;20.082;2024-03-08T04:37:16;28.10;;;14.60;;
67640;SDS011;54434;50.096;20.082;2024-03-08T04:40:13;27.60;;;12.90;;
67640;SDS011;54434;50.096;20.082;2024-03-08T04:43:07;23.00;;;12.30;;
67640;SDS011;54434;50.096;20.082;2024-03-08T04:46:01;33.40;;;17.10;;
67640;SDS011;54434;50.096;20.082;2024-03-08T04:48:56;26.20;;;14.40;;
67640;SDS011;54434;50.096;20.082;2024-03-08T04:51:50;26.40;;;14.20;;
67640;SDS011;54434;50.096;20.082;2024-03-08T04:54:44;25.00;;;13.10;;
67640;SDS011;54434;50.096;20.082;2024-03-08T04:57:39;29.80;;;14.20;;
67640;SDS011;54434;50.096;20.082;2024-03-08T05:00:36;30.90;;;14.90;;
67640;SDS011;54434;50.096;20.082;2024-03-08T05:03:30;27.70;;;14.60;;
67640;SDS011;54434;50.096;20.082;2024-03-08T05:06:23;28.50;;;14.70;;
67640;SDS011;54434;50.096;20.082;2024-03-08T05:09:17;29.60;;;15.10;;
67640;SDS011;54434;50.096;20.082;2024-03-08T05:12:11;28.60;;;14.10;;
67640;SDS011;54434;50.096;20.082;2024-03-08T05:15:06;27.10;;;14.10;;
67640;SDS011;54434;50.096;20.082;2024-03-08T05:18:00;24.40;;;13.80;;
67640;SDS011;54434;50.096;20.082;2024-03-08T05:20:54;31.80;;;14.80;;
67640;SDS011;54434;50.096;20.082;2024-03-08T05:23:48;27.80;;;14.90;;
67640;SDS011;54434;50.096;20.082;2024-03-08T05:26:42;28.30;;;15.20;;
67640;SDS011;54434;50.096;20.082;2024-03-08T05:29:38;31.10;;;16.10;;
67640;SDS011;54434;50.096;20.082;2024-03-08T05:32:32;29.40;;;14.70;;
67640;SDS011;54434;50.096;20.082;2024-03-08T05:35:27;29.10;;;15.60;;
67640;SDS011;54434;50.096;20.082;2024-03-08T05:38:21;34.80;;;16.80;;
67640;SDS011;54434;50.096;20.082;2024-03-08T05:41:15;30.40;;;16.00;;
67640;SDS011;54434;50.096;20.082;2024-03-08T05:44:09;31.20;;;16.00;;
67640;SDS011;54434;50.096;20.082;2024-03-08T05:47:04;26.80;;;12.30;;
67640;SDS011;54434;50.096;20.082;2024-03-08T05:49:58;30.70;;;15.40;;
67640;SDS011;54434;50.096;20.082;2024-03-08T05:52:52;27.10;;;14.70;;
67640;SDS011;54434;50.096;20.082;2024-03-08T05:55:46;27.00;;;14.30;;
67640;SDS011;54434;50.096;20.082;2024-03-08T05:58:40;30.50;;;16.10;;
67640;SDS011;54434;50.096;20.082;2024-03-08T06:01:35;26.80;;;13.00;;
67640;SDS011;54434;50.096;20.082;2024-03-08T06:04:32;27.10;;;14.30;;
67640;SDS011;54434;50.096;20.082;2024-03-08T06:07:25;29.60;;;14.10;;
67640;SDS011;54434;50.096;20.082;2024-03-08T06:10:21;25.90;;;14.30;;
67640;SDS011;54434;50.096;20.082;2024-03-08T06:13:14;31.90;;;15.80;;
67640;SDS011;54434;50.096;20.082;2024-03-08T06:16:08;26.90;;;14.50;;
67640;SDS011;54434;50.096;20.082;2024-03-08T06:19:03;29.20;;;14.50;;
67640;SDS011;54434;50.096;20.082;2024-03-08T06:21:57;32.70;;;16.10;;
67640;SDS011;54434;50.096;20.082;2024-03-08T06:24:54;26.90;;;14.40;;
67640;SDS011;54434;50.096;20.082;2024-03-08T06:27:47;35.10;;;15.90;;
67640;SDS011;54434;50.096;20.082;2024-03-08T06:30:42;29.60;;;14.60;;
67640;SDS011;54434;50.096;20.082;2024-03-08T06:33:36;30.10;;;15.10;;
67640;SDS011;54434;50.096;20.082;2024-03-08T06:36:29;31.10;;;14.10;;
67640;SDS011;54434;50.096;20.082;2024-03-08T06:39:24;31.20;;;16.70;;
67640;SDS011;54434;50.096;20.082;2024-03-08T06:42:19;33.40;;;18.10;;
67640;SDS011;54434;50.096;20.082;2024-03-08T06:45:13;36.20;;;17.80;;
67640;SDS011;54434;50.096;20.082;2024-03-08T06:48:11;29.70;;;15.70;;
67640;SDS011;54434;50.096;20.082;2024-03-08T06:51:05;32.60;;;17.60;;
67640;SDS011;54434;50.096;20.082;2024-03-08T06:54:02;34.00;;;17.30;;
67640;SDS011;54434;50.096;20.082;2024-03-08T06:57:00;32.60;;;18.00;;
67640;SDS011;54434;50.096;20.082;2024-03-08T06:59:55;28.90;;;14.80;;
67640;SDS011;54434;50.096;20.082;2024-03-08T07:02:49;34.00;;;16.90;;
67640;SDS011;54434;50.096;20.082;2024-03-08T07:05:44;32.40;;;17.00;;
67640;SDS011;54434;50.096;20.082;2024-03-08T07:08:39;32.50;;;16.00;;
67640;SDS011;54434;50.096;20.082;2024-03-08T07:11:33;32.60;;;15.50;;
67640;SDS011;54434;50.096;20.082;2024-03-08T07:14:28;35.60;;;18.60;;
67640;SDS011;54434;50.096;20.082;2024-03-08T07:17:22;38.80;;;17.70;;
67640;SDS011;54434;50.096;20.082;2024-03-08T07:20:17;42.30;;;20.20;;
67640;SDS011;54434;50.096;20.082;2024-03-08T07:23:11;41.10;;;20.10;;
67640;SDS011;54434;50.096;20.082;2024-03-08T07:26:24;35.30;;;17.50;;
67640;SDS011;54434;50.096;20.082;2024-03-08T07:29:18;43.90;;;19.60;;
67640;SDS011;54434;50.096;20.082;2024-03-08T07:32:12;39.50;;;19.80;;
67640;SDS011;54434;50.096;20.082;2024-03-08T07:35:11;35.30;;;18.10;;
67640;SDS011;54434;50.096;20.082;2024-03-08T07:38:07;35.70;;;17.60;;
67640;SDS011;54434;50.096;20.082;2024-03-08T07:41:02;34.60;;;17.40;;
67640;SDS011;54434;50.096;20.082;2024-03-08T07:43:56;39.00;;;17.80;;
67640;SDS011;54434;50.096;20.082;2024-03-08T07:46:51;40.00;;;19.10;;
67640;SDS011;54434;50.096;20.082;2024-03-08T07:49:47;39.60;;;20.20;;
67640;SDS011;54434;50.096;20.082;2024-03-08T07:52:41;41.80;;;19.40;;
67640;SDS011;54434;50.096;20.082;2024-03-08T07:55:35;40.60;;;19.00;;
67640;SDS011;54434;50.096;20.082;2024-03-08T07:58:30;40.20;;;20.60;;
67640;SDS011;54434;50.096;20.082;2024-03-08T08:01:25;43.60;;;21.40;;
67640;SDS011;54434;50.096;20.082;2024-03-08T08:04:20;41.40;;;20.40;;
67640;SDS011;54434;50.096;20.082;2024-03-08T08:07:15;45.60;;;23.40;;
67640;SDS011;54434;50.096;20.082;2024-03-08T08:10:11;37.80;;;19.50;;
67640;SDS011;54434;50.096;20.082;2024-03-08T08:13:09;35.30;;;19.40;;
67640;SDS011;54434;50.096;20.082;2024-03-08T08:16:04;43.30;;;22.00;;
67640;SDS011;54434;50.096;20.082;2024-03-08T08:18:59;38.90;;;19.40;;
67640;SDS011;54434;50.096;20.082;2024-03-08T08:21:54;37.30;;;19.40;;
67640;SDS011;54434;50.096;20.082;2024-03-08T08:24:48;37.00;;;18.70;;
67640;SDS011;54434;50.096;20.082;2024-03-08T08:27:43;32.80;;;18.60;;
67640;SDS011;54434;50.096;20.082;2024-03-08T08:30:37;41.20;;;19.10;;
67640;SDS011;54434;50.096;20.082;2024-03-08T08:33:32;37.80;;;20.10;;
67640;SDS011;54434;50.096;20.082;2024-03-08T08:36:27;32.80;;;17.60;;
67640;SDS011;54434;50.096;20.082;2024-03-08T08:39:21;33.90;;;18.00;;
67640;SDS011;54434;50.096;20.082;2024-03-08T08:42:17;31.80;;;17.50;;
67640;SDS011;54434;50.096;20.082;2024-03-08T08:45:11;32.80;;;17.40;;
67640;SDS011;54434;50.096;20.082;2024-03-08T08:48:08;33.30;;;17.40;;
67640;SDS011;54434;50.096;20.082;2024-03-08T08:51:02;31.80;;;16.50;;
67640;SDS011;54434;50.096;20.082;2024-03-08T08:53:57;28.30;;;16.20;;
67640;SDS011;54434;50.096;20.082;2024-03-08T08:56:50;29.10;;;17.10;;
67640;SDS011;54434;50.096;20.082;2024-03-08T08:59:45;29.20;;;16.40;;
67640;SDS011;54434;50.096;20.082;2024-03-08T09:02:39;32.40;;;17.20;;
67640;SDS011;54434;50.096;20.082;2024-03-08T09:05:33;30.30;;;16.00;;
67640;SDS011;54434;50.096;20.082;2024-03-08T09:08:29;26.20;;;14.30;;
67640;SDS011;54434;50.096;20.082;2024-03-08T09:11:24;31.50;;;16.00;;
67640;SDS011;54434;50.096;20.082;2024-03-08T09:14:19;29.40;;;15.80;;
67640;SDS011;54434;50.096;20.082;2024-03-08T09:17:14;30.30;;;15.30;;
67640;SDS011;54434;50.096;20.082;2024-03-08T09:20:12;23.30;;;13.50;;
67640;SDS011;54434;50.096;20.082;2024-03-08T09:23:06;28.60;;;15.50;;
67640;SDS011;54434;50.096;20.082;2024-03-08T09:26:00;30.50;;;16.60;;
67640;SDS011;54434;50.096;20.082;2024-03-08T09:29:02;30.30;;;15.70;;
67640;SDS011;54434;50.096;20.082;2024-03-08T09:31:57;25.30;;;13.70;;
67640;SDS011;54434;50.096;20.082;2024-03-08T09:34:51;24.80;;;13.90;;
67640;SDS011;54434;50.096;20.082;2024-03-08T09:37:47;31.20;;;15.90;;
67640;SDS011;54434;50.096;20.082;2024-03-08T09:40:44;29.00;;;15.00;;
67640;SDS011;54434;50.096;20.082;2024-03-08T09:43:38;22.60;;;12.50;;
67640;SDS011;54434;50.096;20.082;2024-03-08T09:46:32;27.40;;;13.20;;
67640;SDS011;54434;50.096;20.082;2024-03-08T09:49:27;28.30;;;14.90;;
67640;SDS011;54434;50.096;20.082;2024-03-08T09:52:21;24.90;;;12.30;;
67640;SDS011;54434;50.096;20.082;2024-03-08T09:55:17;23.70;;;13.70;;
67640;SDS011;54434;50.096;20.082;2024-03-08T09:58:14;26.00;;;13.80;;
67640;SDS011;54434;50.096;20.082;2024-03-08T10:01:21;27.70;;;15.00;;
67640;SDS011;54434;50.096;20.082;2024-03-08T10:04:17;22.30;;;12.80;;
67640;SDS011;54434;50.096;20.082;2024-03-08T10:07:12;27.70;;;13.90;;
67640;SDS011;54434;50.096;20.082;2024-03-08T10:10:07;26.50;;;14.20;;
67640;SDS011;54434;50.096;20.082;2024-03-08T10:13:03;29.60;;;14.90;;
67640;SDS011;54434;50.096;20.082;2024-03-08T10:15:58;27.10;;;15.30;;
67640;SDS011;54434;50.096;20.082;2024-03-08T10:18:53;26.50;;;14.00;;
67640;SDS011;54434;50.096;20.082;2024-03-08T10:21:50;26.00;;;14.20;;
67640;SDS011;54434;50.096;20.082;2024-03-08T10:24:47;28.80;;;14.90;;
67640;SDS011;54434;50.096;20.082;2024-03-08T10:27:41;28.20;;;14.90;;
67640;SDS011;54434;50.096;20.082;2024-03-08T10:30:35;28.60;;;15.80;;
67640;SDS011;54434;50.096;20.082;2024-03-08T10:33:30;29.30;;;15.70;;
67640;SDS011;54434;50.096;20.082;2024-03-08T10:36:24;29.10;;;15.30;;
67640;SDS011;54434;50.096;20.082;2024-03-08T10:39:24;29.30;;;15.30;;
67640;SDS011;54434;50.096;20.082;2024-03-08T10:42:25;29.40;;;15.50;;
67640;SDS011;54434;50.096;20.082;2024-03-08T10:45:38;25.00;;;14.10;;
67640;SDS011;54434;50.096;20.082;2024-03-08T10:48:39;27.30;;;14.60;;
67640;SDS011;54434;50.096;20.082;2024-03-08T10:51:37;27.80;;;15.00;;
67640;SDS011;54434;50.096;20.082;2024-03-08T10:54:32;26.70;;;13.30;;
67640;SDS011;54434;50.096;20.082;2024-03-08T10:57:34;30.10;;;15.50;;
67640;SDS011;54434;50.096;20.082;2024-03-08T11:00:30;27.60;;;16.00;;
67640;SDS011;54434;50.096;20.082;2024-03-08T11:03:47;19.70;;;10.70;;
67640;SDS011;54434;50.096;20.082;2024-03-08T11:06:47;27.00;;;15.10;;
67640;SDS011;54434;50.096;20.082;2024-03-08T11:09:43;29.90;;;16.00;;
67640;SDS011;54434;50.096;20.082;2024-03-08T11:12:39;26.60;;;14.80;;
67640;SDS011;54434;50.096;20.082;2024-03-08T11:15:33;25.60;;;14.70;;
67640;SDS011;54434;50.096;20.082;2024-03-08T11:18:33;28.90;;;15.50;;
67640;SDS011;54434;50.096;20.082;2024-03-08T11:21:28;27.50;;;15.10;;
67640;SDS011;54434;50.096;20.082;2024-03-08T11:24:23;23.80;;;14.00;;
67640;SDS011;54434;50.096;20.082;2024-03-08T11:27:18;26.40;;;13.80;;
67640;SDS011;54434;50.096;20.082;2024-03-08T11:30:13;24.80;;;14.40;;
67640;SDS011;54434;50.096;20.082;2024-03-08T11:33:17;28.00;;;14.80;;
67640;SDS011;54434;50.096;20.082;2024-03-08T11:36:13;28.00;;;14.90;;
67640;SDS011;54434;50.096;20.082;2024-03-08T11:39:15;29.20;;;15.80;;
67640;SDS011;54434;50.096;20.082;2024-03-08T11:42:10;27.00;;;15.20;;
67640;SDS011;54434;50.096;20.082;2024-03-08T11:45:10;25.30;;;14.60;;
67640;SDS011;54434;50.096;20.082;2024-03-08T11:48:05;25.20;;;14.60;;
67640;SDS011;54434;50.096;20.082;2024-03-08T11:51:02;31.10;;;15.30;;
67640;SDS011;54434;50.096;20.082;2024-03-08T11:53:57;24.70;;;14.60;;
67640;SDS011;54434;50.096;20.082;2024-03-08T11:56:53;27.20;;;15.50;;
67640;SDS011;54434;50.096;20.082;2024-03-08T11:59:53;26.80;;;15.60;;
67640;SDS011;54434;50.096;20.082;2024-03-08T12:02:48;26.10;;;14.90;;
67640;SDS011;54434;50.096;20.082;2024-03-08T12:05:59;28.00;;;15.80;;
67640;SDS011;54434;50.096;20.082;2024-03-08T12:08:54;28.40;;;16.50;;
67640;SDS011;54434;50.096;20.082;2024-03-08T12:11:50;31.30;;;16.50;;
67640;SDS011;54434;50.096;20.082;2024-03-08T12:14:45;30.20;;;15.80;;
67640;SDS011;54434;50.096;20.082;2024-03-08T12:17:39;28.50;;;15.30;;
67640;SDS011;54434;50.096;20.082;2024-03-08T12:20:34;29.90;;;14.00;;
67640;SDS011;54434;50.096;20.082;2024-03-08T12:23:30;24.90;;;13.90;;
67640;SDS011;54434;50.096;20.082;2024-03-08T12:26:26;24.50;;;14.30;;
67640;SDS011;54434;50.096;20.082;2024-03-08T12:29:21;33.60;;;17.60;;
67640;SDS011;54434;50.096;20.082;2024-03-08T12:32:18;26.20;;;14.90;;
67640;SDS011;54434;50.096;20.082;2024-03-08T12:35:14;27.30;;;16.40;;
67640;SDS011;54434;50.096;20.082;2024-03-08T12:38:08;27.90;;;16.50;;
67640;SDS011;54434;50.096;20.082;2024-03-08T12:41:02;26.60;;;15.70;;
67640;SDS011;54434;50.096;20.082;2024-03-08T12:43:56;32.00;;;16.80;;
67640;SDS011;54434;50.096;20.082;2024-03-08T12:46:50;28.50;;;15.80;;
67640;SDS011;54434;50.096;20.082;2024-03-08T12:49:45;30.10;;;16.70;;
67640;SDS011;54434;50.096;20.082;2024-03-08T12:52:39;22.80;;;12.60;;
67640;SDS011;54434;50.096;20.082;2024-03-08T12:55:34;27.40;;;14.90;;
67640;SDS011;54434;50.096;20.082;2024-03-08T12:58:28;27.30;;;14.80;;
67640;SDS011;54434;50.096;20.082;2024-03-08T13:01:27;27.80;;;15.30;;
67640;SDS011;54434;50.096;20.082;2024-03-08T13:04:22;29.30;;;16.30;;
67640;SDS011;54434;50.096;20.082;2024-03-08T13:07:16;29.50;;;15.30;;
67640;SDS011;54434;50.096;20.082;2024-03-08T13:10:10;28.00;;;14.60;;
67640;SDS011;54434;50.096;20.082;2024-03-08T13:13:06;32.50;;;16.70;;
67640;SDS011;54434;50.096;20.082;2024-03-08T13:16:00;28.80;;;15.60;;
67640;SDS011;54434;50.096;20.082;2024-03-08T13:18:54;27.20;;;15.30;;
67640;SDS011;54434;50.096;20.082;2024-03-08T13:21:48;30.80;;;15.80;;
67640;SDS011;54434;50.096;20.082;2024-03-08T13:24:42;28.10;;;15.20;;
67640;SDS011;54434;50.096;20.082;2024-03-08T13:27:39;28.90;;;14.30;;
67640;SDS011;54434;50.096;20.082;2024-03-08T13:30:33;30.40;;;16.60;;
67640;SDS011;54434;50.096;20.082;2024-03-08T13:33:28;27.00;;;14.80;;
67640;SDS011;54434;50.096;20.082;2024-03-08T13:36:21;32.50;;;16.60;;
67640;SDS011;54434;50.096;20.082;2024-03-08T13:39:20;27.40;;;15.30;;
67640;SDS011;54434;50.096;20.082;2024-03-08T13:42:16;31.30;;;14.90;;
67640;SDS011;54434;50.096;20.082;2024-03-08T13:45:12;26.80;;;14.60;;
67640;SDS011;54434;50.096;20.082;2024-03-08T13:48:09;27.10;;;15.00;;
67640;SDS011;54434;50.096;20.082;2024-03-08T13:51:04;28.90;;;16.10;;
67640;SDS011;54434;50.096;20.082;2024-03-08T13:53:59;26.30;;;14.60;;
67640;SDS011;54434;50.096;20.082;2024-03-08T13:56:53;27.90;;;15.70;;
67640;SDS011;54434;50.096;20.082;2024-03-08T13:59:46;25.50;;;14.50;;
67640;SDS011;54434;50.096;20.082;2024-03-08T14:02:42;29.90;;;14.50;;
67640;SDS011;54434;50.096;20.082;2024-03-08T14:05:37;29.30;;;14.90;;
67640;SDS011;54434;50.096;20.082;2024-03-08T14:08:33;29.30;;;15.30;;
67640;SDS011;54434;50.096;20.082;2024-03-08T14:11:29;24.50;;;13.90;;
67640;SDS011;54434;50.096;20.082;2024-03-08T14:14:24;26.70;;;14.90;;
67640;SDS011;54434;50.096;20.082;2024-03-08T14:17:18;37.20;;;18.80;;
67640;SDS011;54434;50.096;20.082;2024-03-08T14:20:13;25.10;;;13.80;;
67640;SDS011;54434;50.096;20.082;2024-03-08T14:23:08;30.90;;;15.40;;
67640;SDS011;54434;50.096;20.082;2024-03-08T14:26:04;27.80;;;15.10;;
67640;SDS011;54434;50.096;20.082;2024-03-08T14:28:59;25.70;;;13.70;;
67640;SDS011;54434;50.096;20.082;2024-03-08T14:31:52;24.80;;;13.00;;
67640;SDS011;54434;50.096;20.082;2024-03-08T14:34:48;27.30;;;13.90;;
67640;SDS011;54434;50.096;20.082;2024-03-08T14:37:42;24.80;;;13.80;;
67640;SDS011;54434;50.096;20.082;2024-03-08T14:40:36;25.70;;;14.10;;
67640;SDS011;54434;50.096;20.082;2024-03-08T14:43:31;26.90;;;14.50;;
67640;SDS011;54434;50.096;20.082;2024-03-08T14:46:25;27.20;;;14.60;;
67640;SDS011;54434;50.096;20.082;2024-03-08T14:49:19;28.10;;;14.50;;
67640;SDS011;54434;50.096;20.082;2024-03-08T14:52:13;30.50;;;15.90;;
67640;SDS011;54434;50.096;20.082;2024-03-08T14:55:20;29.60;;;16.60;;
67640;SDS011;54434;50.096;20.082;2024-03-08T14:58:15;28.40;;;15.00;;
67640;SDS011;54434;50.096;20.082;2024-03-08T15:01:12;29.60;;;15.10;;
67640;SDS011;54434;50.096;20.082;2024-03-08T15:04:06;24.60;;;13.80;;
67640;SDS011;54434;50.096;20.082;2024-03-08T15:07:01;26.90;;;14.40;;
67640;SDS011;54434;50.096;20.082;2024-03-08T15:09:56;26.30;;;14.20;;
67640;SDS011;54434;50.096;20.082;2024-03-08T15:12:50;25.50;;;13.90;;
67640;SDS011;54434;50.096;20.082;2024-03-08T15:15:47;26.70;;;14.10;;
67640;SDS011;54434;50.096;20.082;2024-03-08T15:18:46;26.60;;;14.90;;
67640;SDS011;54434;50.096;20.082;2024-03-08T15:21:42;26.90;;;14.20;;
67640;SDS011;54434;50.096;20.082;2024-03-08T15:24:38;25.70;;;14.60;;
67640;SDS011;54434;50.096;20.082;2024-03-08T15:27:34;30.60;;;14.50;;
67640;SDS011;54434;50.096;20.082;2024-03-08T15:30:29;25.10;;;13.50;;
67640;SDS011;54434;50.096;20.082;2024-03-08T15:33:24;25.80;;;14.20;;
67640;SDS011;54434;50.096;20.082;2024-03-08T15:36:20;24.40;;;13.60;;
67640;SDS011;54434;50.096;20.082;2024-03-08T15:39:14;25.70;;;13.90;;
67640;SDS011;54434;50.096;20.082;2024-03-08T15:42:10;28.70;;;15.00;;
67640;SDS011;54434;50.096;20.082;2024-03-08T15:45:05;26.20;;;14.80;;
67640;SDS011;54434;50.096;20.082;2024-03-08T15:47:59;27.50;;;14.30;;
67640;SDS011;54434;50.096;20.082;2024-03-08T15:50:56;30.00;;;15.60;;
67640;SDS011;54434;50.096;20.082;2024-03-08T15:53:53;35.10;;;15.30;;
67640;SDS011;54434;50.096;20.082;2024-03-08T15:56:47;28.20;;;15.00;;
67640;SDS011;54434;50.096;20.082;2024-03-08T15:59:45;29.30;;;15.00;;
67640;SDS011;54434;50.096;20.082;2024-03-08T16:02:41;31.10;;;15.60;;
67640;SDS011;54434;50.096;20.082;2024-03-08T16:05:35;30.30;;;13.50;;
67640;SDS011;54434;50.096;20.082;2024-03-08T16:08:32;30.50;;;15.00;;
67640;SDS011;54434;50.096;20.082;2024-03-08T16:11:30;26.30;;;14.00;;
67640;SDS011;54434;50.096;20.082;2024-03-08T16:14:28;29.40;;;14.80;;
67640;SDS011;54434;50.096;20.082;2024-03-08T16:17:22;29.00;;;15.50;;
67640;SDS011;54434;50.096;20.082;2024-03-08T16:20:18;32.40;;;15.40;;
67640;SDS011;54434;50.096;20.082;2024-03-08T16:23:13;33.50;;;15.40;;
67640;SDS011;54434;50.096;20.082;2024-03-08T16:26:07;27.70;;;15.30;;
67640;SDS011;54434;50.096;20.082;2024-03-08T16:29:02;33.50;;;16.40;;
67640;SDS011;54434;50.096;20.082;2024-03-08T16:31:57;34.50;;;16.70;;
67640;SDS011;54434;50.096;20.082;2024-03-08T16:34:51;36.10;;;16.90;;
67640;SDS011;54434;50.096;20.082;2024-03-08T16:37:46;33.50;;;16.50;;
67640;SDS011;54434;50.096;20.082;2024-03-08T16:40:42;34.60;;;16.60;;
67640;SDS011;54434;50.096;20.082;2024-03-08T16:43:37;35.90;;;17.70;;
67640;SDS011;54434;50.096;20.082;2024-03-08T16:46:34;35.20;;;18.20;;
67640;SDS011;54434;50.096;20.082;2024-03-08T16:49:31;37.70;;;16.60;;